sensor_id;sensor_type;location;lat;lon;timestamp;pressure;altitude;pressure_sealevel;temperature;humidity
13695;BME280;6919;52.344;14.518;2023-04-01T00:01:17;98995.03;;;9.18;100.00
13695;BME280;6919;52.344;14.518;2023-04-01T00:03:46;98991.72;;;9.16;100.00
13695;BME280;6919;52.344;14.518;2023-04-01T00:06:18;98986.81;;;9.20;100.00
13695;BME280;6919;52.344;14.518;2023-04-01T00:08:46;98986.00;;;9.19;100.00
13695;BME280;6919;52.344;14.518;2023-04-01T00:11:15;98981.69;;;9.18;100.00
13695;BME280;6919;52.344;14.518;2023-04-01T00:13:47;98987.41;;;9.15;100.00
13695;BME280;6919;52.344;14.518;2023-04-01T00:16:16;98982.66;;;9.17;100.00
13695;BME280;6919;52.344;14.518;2023-04-01T00:18:49;98983.16;;;9.21;100.00
13695;BME280;6919;52.344;14.518;2023-04-01T00:21:20;98991.72;;;9.16;100.00
13695;BME280;6919;52.344;14.518;2023-04-01T00:23:50;98985.34;;;9.17;100.00
13695;BME280;6919;52.344;14.518;2023-04-01T00:26:19;98986.47;;;9.08;100.00
13695;BME280;6919;52.344;14.518;2023-04-01T00:28:49;98986.38;;;9.16;100.00
13695;BME280;6919;52.344;14.518;2023-04-01T00:31:18;98989.69;;;9.18;100.00
13695;BME280;6919;52.344;14.518;2023-04-01T00:33:47;98983.31;;;9.19;100.00
13695;BME280;6919;52.344;14.518;2023-04-01T00:36:19;98988.94;;;9.24;100.00
13695;BME280;6919;52.344;14.518;2023-04-01T00:38:48;98984.81;;;9.22;100.00
13695;BME280;6919;52.344;14.518;2023-04-01T00:41:19;98990.81;;;9.24;100.00
13695;BME280;6919;52.344;14.518;2023-04-01T00:43:50;98989.69;;;9.18;100.00
13695;BME280;6919;52.344;14.518;2023-04-01T00:46:20;98988.22;;;9.30;100.00
13695;BME280;6919;52.344;14.518;2023-04-01T00:48:53;98986.34;;;9.45;100.00
13695;BME280;6919;52.344;14.518;2023-04-01T00:51:29;98982.50;;;9.19;100.00
13695;BME280;6919;52.344;14.518;2023-04-01T00:54:00;98985.72;;;9.29;100.00
13695;BME280;6919;52.344;14.518;2023-04-01T00:56:33;98990.22;;;9.28;100.00
13695;BME280;6919;52.344;14.518;2023-04-01T00:59:08;98992.16;;;9.20;100.00
13695;BME280;6919;52.344;14.518;2023-04-01T01:01:38;98986.00;;;9.19;100.00
13695;BME280;6919;52.344;14.518;2023-04-01T01:04:06;98995.50;;;9.22;100.00
13695;BME280;6919;52.344;14.518;2023-04-01T01:06:46;98981.09;;;9.23;100.00
13695;BME280;6919;52.344;14.518;2023-04-01T01:09:31;98988.50;;;9.21;100.00
13695;BME280;6919;52.344;14.518;2023-04-01T01:12:11;98988.56;;;9.27;100.00
13695;BME280;6919;52.344;14.518;2023-04-01T01:14:54;98990.63;;;9.25;100.00
13695;BME280;6919;52.344;14.518;2023-04-01T01:17:39;98989.59;;;9.26;100.00
13695;BME280;6919;52.344;14.518;2023-04-01T01:20:50;98983.50;;;9.18;100.00
13695;BME280;6919;52.344;14.518;2023-04-01T01:24:06;98990.03;;;9.30;100.00
13695;BME280;6919;52.344;14.518;2023-04-01T01:27:10;98987.72;;;9.27;100.00
13695;BME280;6919;52.344;14.518;2023-04-01T01:30:19;98989.06;;;9.31;100.00
13695;BME280;6919;52.344;14.518;2023-04-01T01:33:14;98981.56;;;9.26;100.00
13695;BME280;6919;52.344;14.518;2023-04-01T01:35:51;98987.56;;;9.28;100.00
13695;BME280;6919;52.344;14.518;2023-04-01T01:38:24;98987.38;;;9.30;100.00
13695;BME280;6919;52.344;14.518;2023-04-01T01:40:57;98991.25;;;9.27;100.00
13695;BME280;6919;52.344;14.518;2023-04-01T01:43:30;98985.28;;;9.25;100.00
13695;BME280;6919;52.344;14.518;2023-04-01T01:46:04;98984.63;;;9.23;100.00
13695;BME280;6919;52.344;14.518;2023-04-01T01:48:34;98995.84;;;9.19;100.00
13695;BME280;6919;52.344;14.518;2023-04-01T01:51:06;98991.16;;;9.35;100.00
13695;BME280;6919;52.344;14.518;2023-04-01T01:53:35;98992.38;;;9.18;100.00
13695;BME280;6919;52.344;14.518;2023-04-01T01:56:05;98990.63;;;9.25;100.00
13695;BME280;6919;52.344;14.518;2023-04-01T01:58:37;98986.81;;;9.20;100.00
13695;BME280;6919;52.344;14.518;2023-04-01T02:01:15;98992.63;;;9.23;100.00
13695;BME280;6919;52.344;14.518;2023-04-01T02:03:46;98995.41;;;9.15;100.00
13695;BME280;6919;52.344;14.518;2023-04-01T02:06:21;98998.16;;;9.22;100.00
13695;BME280;6919;52.344;14.518;2023-04-01T02:08:54;98993.72;;;9.14;100.00
13695;BME280;6919;52.344;14.518;2023-04-01T02:11:30;98998.81;;;9.09;100.00
13695;BME280;6919;52.344;14.518;2023-04-01T02:14:05;98999.84;;;9.08;100.00
13695;BME280;6919;52.344;14.518;2023-04-01T02:16:40;99000.09;;;9.13;100.00
13695;BME280;6919;52.344;14.518;2023-04-01T02:19:13;99002.69;;;9.07;100.00
13695;BME280;6919;52.344;14.518;2023-04-01T02:21:45;99005.38;;;9.07;100.00
13695;BME280;6919;52.344;14.518;2023-04-01T02:24:14;98998.16;;;9.07;100.00
13695;BME280;6919;52.344;14.518;2023-04-01T02:26:44;99003.97;;;9.11;100.00
13695;BME280;6919;52.344;14.518;2023-04-01T02:29:14;99006.56;;;9.19;100.00
13695;BME280;6919;52.344;14.518;2023-04-01T02:31:43;99003.25;;;9.17;100.00
13695;BME280;6919;52.344;14.518;2023-04-01T02:34:13;99005.75;;;9.18;100.00
13695;BME280;6919;52.344;14.518;2023-04-01T02:36:43;99010.16;;;9.11;100.00
13695;BME280;6919;52.344;14.518;2023-04-01T02:39:13;99016.13;;;9.13;100.00
13695;BME280;6919;52.344;14.518;2023-04-01T02:41:43;99014.22;;;9.22;100.00
13695;BME280;6919;52.344;14.518;2023-04-01T02:44:14;99017.53;;;9.09;100.00
13695;BME280;6919;52.344;14.518;2023-04-01T02:46:43;99026.22;;;9.11;100.00
13695;BME280;6919;52.344;14.518;2023-04-01T02:49:12;99034.84;;;9.13;100.00
13695;BME280;6919;52.344;14.518;2023-04-01T02:51:40;99031.28;;;9.21;100.00
13695;BME280;6919;52.344;14.518;2023-04-01T02:54:10;99033.41;;;9.25;100.00
13695;BME280;6919;52.344;14.518;2023-04-01T02:56:38;99032.09;;;9.21;100.00
13695;BME280;6919;52.344;14.518;2023-04-01T02:59:06;99034.59;;;9.23;100.00
13695;BME280;6919;52.344;14.518;2023-04-01T03:01:34;99032.56;;;9.25;100.00
13695;BME280;6919;52.344;14.518;2023-04-01T03:04:03;99035.06;;;9.26;100.00
13695;BME280;6919;52.344;14.518;2023-04-01T03:06:32;99035.81;;;9.35;100.00
13695;BME280;6919;52.344;14.518;2023-04-01T03:09:00;99028.66;;;9.13;100.00
13695;BME280;6919;52.344;14.518;2023-04-01T03:11:30;99036.72;;;9.27;100.00
13695;BME280;6919;52.344;14.518;2023-04-01T03:13:58;99047.31;;;9.21;100.00
13695;BME280;6919;52.344;14.518;2023-04-01T03:16:26;99034.84;;;9.13;100.00
13695;BME280;6919;52.344;14.518;2023-04-01T03:18:54;99034.78;;;9.07;100.00
13695;BME280;6919;52.344;14.518;2023-04-01T03:21:25;99036.91;;;9.11;100.00
13695;BME280;6919;52.344;14.518;2023-04-01T03:23:54;99040.38;;;9.12;100.00
13695;BME280;6919;52.344;14.518;2023-04-01T03:26:22;99040.38;;;9.12;100.00
13695;BME280;6919;52.344;14.518;2023-04-01T03:28:52;99042.44;;;9.10;100.00
13695;BME280;6919;52.344;14.518;2023-04-01T03:31:20;99041.59;;;9.09;100.00
13695;BME280;6919;52.344;14.518;2023-04-01T03:33:50;99038.91;;;9.09;100.00
13695;BME280;6919;52.344;14.518;2023-04-01T03:36:18;99045.19;;;9.16;100.00
13695;BME280;6919;52.344;14.518;2023-04-01T03:38:47;99043.91;;;9.12;100.00
13695;BME280;6919;52.344;14.518;2023-04-01T03:41:17;99048.22;;;9.13;100.00
13695;BME280;6919;52.344;14.518;2023-04-01T03:43:45;99047.69;;;9.18;100.00
13695;BME280;6919;52.344;14.518;2023-04-01T03:46:18;99055.03;;;9.16;100.00
13695;BME280;6919;52.344;14.518;2023-04-01T03:48:47;99048.72;;;9.17;100.00
13695;BME280;6919;52.344;14.518;2023-04-01T03:51:15;99053.56;;;9.13;100.00
13695;BME280;6919;52.344;14.518;2023-04-01T03:53:44;99055.53;;;9.19;100.00
13695;BME280;6919;52.344;14.518;2023-04-01T03:56:12;99050.06;;;9.13;100.00
13695;BME280;6919;52.344;14.518;2023-04-01T03:58:40;99059.09;;;9.12;100.00
13695;BME280;6919;52.344;14.518;2023-04-01T04:01:20;99055.97;;;9.08;100.00
13695;BME280;6919;52.344;14.518;2023-04-01T04:03:50;99063.50;;;9.04;100.00
13695;BME280;6919;52.344;14.518;2023-04-01T04:06:19;99072.19;;;9.07;100.00
13695;BME280;6919;52.344;14.518;2023-04-01T04:08:48;99060.47;;;9.07;100.00
13695;BME280;6919;52.344;14.518;2023-04-01T04:11:18;99070.34;;;9.07;100.00
13695;BME280;6919;52.344;14.518;2023-04-01T04:13:47;99070.53;;;9.06;100.00
13695;BME280;6919;52.344;14.518;2023-04-01T04:16:17;99075.97;;;9.12;100.00
13695;BME280;6919;52.344;14.518;2023-04-01T04:18:46;99067.31;;;9.10;100.00
13695;BME280;6919;52.344;14.518;2023-04-01T04:21:15;99080.84;;;9.08;100.00
13695;BME280;6919;52.344;14.518;2023-04-01T04:23:43;99087.56;;;9.04;100.00
13695;BME280;6919;52.344;14.518;2023-04-01T04:26:14;99086.31;;;9.15;100.00
13695;BME280;6919;52.344;14.518;2023-04-01T04:28:42;99087.03;;;9.09;100.00
13695;BME280;6919;52.344;14.518;2023-04-01T04:31:10;99091.19;;;9.12;100.00
13695;BME280;6919;52.344;14.518;2023-04-01T04:33:40;99085.91;;;9.03;100.00
13695;BME280;6919;52.344;14.518;2023-04-01T04:36:08;99089.78;;;9.01;100.00
13695;BME280;6919;52.344;14.518;2023-04-01T04:38:37;99085.44;;;9.00;100.00
13695;BME280;6919;52.344;14.518;2023-04-01T04:41:09;99090.59;;;9.01;100.00
13695;BME280;6919;52.344;14.518;2023-04-01T04:43:38;99099.28;;;9.03;100.00
13695;BME280;6919;52.344;14.518;2023-04-01T04:46:07;99095.41;;;8.91;100.00
13695;BME280;6919;52.344;14.518;2023-04-01T04:48:35;99098.97;;;8.84;100.00
13695;BME280;6919;52.344;14.518;2023-04-01T04:51:05;99102.25;;;8.86;100.00
13695;BME280;6919;52.344;14.518;2023-04-01T04:53:34;99103.81;;;8.80;100.00
13695;BME280;6919;52.344;14.518;2023-04-01T04:56:02;99105.69;;;8.94;100.00
13695;BME280;6919;52.344;14.518;2023-04-01T04:58:30;99103.59;;;8.90;100.00
13695;BME280;6919;52.344;14.518;2023-04-01T05:00:58;99111.72;;;8.96;100.00
13695;BME280;6919;52.344;14.518;2023-04-01T05:03:27;99109.13;;;9.03;100.00
13695;BME280;6919;52.344;14.518;2023-04-01T05:05:55;99117.50;;;9.00;100.00
13695;BME280;6919;52.344;14.518;2023-04-01T05:08:25;99117.34;;;9.01;100.00
13695;BME280;6919;52.344;14.518;2023-04-01T05:10:53;99116.16;;;9.04;100.00
13695;BME280;6919;52.344;14.518;2023-04-01T05:13:21;99114.63;;;9.10;100.00
13695;BME280;6919;52.344;14.518;2023-04-01T05:15:50;99126.25;;;9.17;100.00
13695;BME280;6919;52.344;14.518;2023-04-01T05:18:18;99121.56;;;9.33;100.00
13695;BME280;6919;52.344;14.518;2023-04-01T05:20:47;99126.25;;;9.31;100.00
13695;BME280;6919;52.344;14.518;2023-04-01T05:23:16;99121.41;;;9.35;100.00
13695;BME280;6919;52.344;14.518;2023-04-01T05:25:46;99128.66;;;9.41;100.00
13695;BME280;6919;52.344;14.518;2023-04-01T05:28:15;99124.72;;;9.51;100.00
13695;BME280;6919;52.344;14.518;2023-04-01T05:30:44;99129.25;;;9.51;100.00
13695;BME280;6919;52.344;14.518;2023-04-01T05:33:13;99130.72;;;9.53;100.00
13695;BME280;6919;52.344;14.518;2023-04-01T05:35:42;99138.00;;;9.59;100.00
13695;BME280;6919;52.344;14.518;2023-04-01T05:38:10;99138.94;;;9.66;100.00
13695;BME280;6919;52.344;14.518;2023-04-01T05:40:39;99139.88;;;9.59;100.00
13695;BME280;6919;52.344;14.518;2023-04-01T05:43:09;99146.59;;;9.69;100.00
13695;BME280;6919;52.344;14.518;2023-04-01T05:45:37;99140.41;;;9.54;100.00
13695;BME280;6919;52.344;14.518;2023-04-01T05:48:06;99136.53;;;9.57;100.00
13695;BME280;6919;52.344;14.518;2023-04-01T05:50:35;99143.94;;;9.69;100.00
13695;BME280;6919;52.344;14.518;2023-04-01T05:53:03;99139.78;;;9.67;100.00
13695;BME280;6919;52.344;14.518;2023-04-01T05:55:34;99142.63;;;9.65;100.00
13695;BME280;6919;52.344;14.518;2023-04-01T05:58:02;99146.53;;;9.63;100.00
13695;BME280;6919;52.344;14.518;2023-04-01T06:00:32;99149.72;;;9.73;100.00
13695;BME280;6919;52.344;14.518;2023-04-01T06:03:01;99154.25;;;10.01;100.00
13695;BME280;6919;52.344;14.518;2023-04-01T06:05:36;99147.16;;;9.94;100.00
13695;BME280;6919;52.344;14.518;2023-04-01T06:08:10;99151.94;;;9.98;100.00
13695;BME280;6919;52.344;14.518;2023-04-01T06:10:48;99150.56;;;10.02;100.00
13695;BME280;6919;52.344;14.518;2023-04-01T06:13:26;99155.47;;;9.99;100.00
13695;BME280;6919;52.344;14.518;2023-04-01T06:16:05;99156.88;;;10.09;100.00
13695;BME280;6919;52.344;14.518;2023-04-01T06:18:59;99161.78;;;10.06;100.00
13695;BME280;6919;52.344;14.518;2023-04-01T06:21:55;99164.78;;;10.03;100.00
13695;BME280;6919;52.344;14.518;2023-04-01T06:24:50;99166.25;;;10.05;100.00
13695;BME280;6919;52.344;14.518;2023-04-01T06:27:34;99160.28;;;10.03;100.00
13695;BME280;6919;52.344;14.518;2023-04-01T06:30:18;99162.97;;;10.03;100.00
13695;BME280;6919;52.344;14.518;2023-04-01T06:33:10;99165.19;;;10.14;100.00
13695;BME280;6919;52.344;14.518;2023-04-01T06:35:54;99162.16;;;10.17;100.00
13695;BME280;6919;52.344;14.518;2023-04-01T06:39:06;99165.78;;;10.45;100.00
13695;BME280;6919;52.344;14.518;2023-04-01T06:42:02;99158.63;;;10.31;100.00
13695;BME280;6919;52.344;14.518;2023-04-01T06:44:37;99160.72;;;10.36;100.00
13695;BME280;6919;52.344;14.518;2023-04-01T06:47:21;99168.06;;;10.48;100.00
13695;BME280;6919;52.344;14.518;2023-04-01T06:49:58;99162.72;;;10.48;100.00
13695;BME280;6919;52.344;14.518;2023-04-01T06:52:40;99165.75;;;10.60;100.00
13695;BME280;6919;52.344;14.518;2023-04-01T06:55:24;99156.81;;;10.74;100.00
13695;BME280;6919;52.344;14.518;2023-04-01T06:57:56;99161.69;;;10.85;100.00
13695;BME280;6919;52.344;14.518;2023-04-01T07:00:29;99159.47;;;10.88;100.00
13695;BME280;6919;52.344;14.518;2023-04-01T07:03:06;99165.34;;;10.98;100.00
13695;BME280;6919;52.344;14.518;2023-04-01T07:05:40;99159.84;;;11.06;100.00
13695;BME280;6919;52.344;14.518;2023-04-01T07:08:13;99162.44;;;11.00;100.00
13695;BME280;6919;52.344;14.518;2023-04-01T07:10:47;99159.97;;;10.98;100.00
13695;BME280;6919;52.344;14.518;2023-04-01T07:13:22;99144.81;;;11.12;100.00
13695;BME280;6919;52.344;14.518;2023-04-01T07:15:59;99148.25;;;11.27;100.00
13695;BME280;6919;52.344;14.518;2023-04-01T07:18:34;99144.53;;;11.28;100.00
13695;BME280;6919;52.344;14.518;2023-04-01T07:21:20;99146.75;;;11.18;100.00
13695;BME280;6919;52.344;14.518;2023-04-01T07:23:51;99150.25;;;11.18;100.00
13695;BME280;6919;52.344;14.518;2023-04-01T07:26:24;99145.56;;;11.27;100.00
13695;BME280;6919;52.344;14.518;2023-04-01T07:28:54;99150.09;;;11.26;100.00
13695;BME280;6919;52.344;14.518;2023-04-01T07:31:34;99147.22;;;11.28;100.00
13695;BME280;6919;52.344;14.518;2023-04-01T07:34:12;99155.34;;;11.34;100.00
13695;BME280;6919;52.344;14.518;2023-04-01T07:36:50;99144.63;;;11.34;100.00
13695;BME280;6919;52.344;14.518;2023-04-01T07:39:32;99147.03;;;11.29;100.00
13695;BME280;6919;52.344;14.518;2023-04-01T07:42:08;99146.06;;;11.37;100.00
13695;BME280;6919;52.344;14.518;2023-04-01T07:44:43;99142.53;;;11.36;100.00
13695;BME280;6919;52.344;14.518;2023-04-01T07:47:34;99150.31;;;11.52;100.00
13695;BME280;6919;52.344;14.518;2023-04-01T07:50:16;99147.28;;;11.34;100.00
13695;BME280;6919;52.344;14.518;2023-04-01T07:52:53;99145.91;;;11.45;100.00
13695;BME280;6919;52.344;14.518;2023-04-01T07:55:32;99145.84;;;11.59;100.00
13695;BME280;6919;52.344;14.518;2023-04-01T07:58:10;99147.78;;;11.65;100.00
13695;BME280;6919;52.344;14.518;2023-04-01T08:00:44;99149.50;;;11.79;100.00
13695;BME280;6919;52.344;14.518;2023-04-01T08:03:28;99148.16;;;11.62;100.00
13695;BME280;6919;52.344;14.518;2023-04-01T08:06:02;99143.66;;;11.69;100.00
13695;BME280;6919;52.344;14.518;2023-04-01T08:08:45;99141.97;;;11.68;100.00
13695;BME280;6919;52.344;14.518;2023-04-01T08:11:25;99147.09;;;11.91;100.00
13695;BME280;6919;52.344;14.518;2023-04-01T08:14:04;99145.03;;;11.93;100.00
13695;BME280;6919;52.344;14.518;2023-04-01T08:16:44;99155.13;;;11.84;100.00
13695;BME280;6919;52.344;14.518;2023-04-01T08:19:22;99148.44;;;12.08;100.00
13695;BME280;6919;52.344;14.518;2023-04-01T08:22:02;99147.75;;;12.00;100.00
13695;BME280;6919;52.344;14.518;2023-04-01T08:24:38;99148.63;;;12.07;100.00
13695;BME280;6919;52.344;14.518;2023-04-01T08:27:17;99154.06;;;11.85;100.00
13695;BME280;6919;52.344;14.518;2023-04-01T08:29:51;99156.91;;;11.71;100.00
13695;BME280;6919;52.344;14.518;2023-04-01T08:32:28;99156.03;;;11.64;100.00
13695;BME280;6919;52.344;14.518;2023-04-01T08:35:08;99158.94;;;11.69;100.00
13695;BME280;6919;52.344;14.518;2023-04-01T08:37:39;99154.78;;;11.66;100.00
13695;BME280;6919;52.344;14.518;2023-04-01T08:43:20;99159.59;;;11.50;100.00
13695;BME280;6919;52.344;14.518;2023-04-01T08:46:12;99166.47;;;11.59;100.00
13695;BME280;6919;52.344;14.518;2023-04-01T08:49:04;99166.63;;;11.51;100.00
13695;BME280;6919;52.344;14.518;2023-04-01T08:55:43;99181.00;;;11.92;100.00
13695;BME280;6919;52.344;14.518;2023-04-01T09:02:10;99171.16;;;12.06;100.00
13695;BME280;6919;52.344;14.518;2023-04-01T09:05:11;99170.88;;;12.35;100.00
13695;BME280;6919;52.344;14.518;2023-04-01T09:07:55;99172.50;;;12.23;100.00
13695;BME280;6919;52.344;14.518;2023-04-01T09:10:44;99170.91;;;12.41;100.00
13695;BME280;6919;52.344;14.518;2023-04-01T09:13:27;99164.31;;;12.03;100.00
13695;BME280;6919;52.344;14.518;2023-04-01T09:19:18;99173.91;;;11.84;100.00
13695;BME280;6919;52.344;14.518;2023-04-01T09:25:14;99187.94;;;11.31;100.00
13695;BME280;6919;52.344;14.518;2023-04-01T09:27:55;99203.19;;;11.31;100.00
13695;BME280;6919;52.344;14.518;2023-04-01T09:30:41;99199.69;;;11.09;100.00
13695;BME280;6919;52.344;14.518;2023-04-01T09:36:26;99208.50;;;11.45;100.00
13695;BME280;6919;52.344;14.518;2023-04-01T09:39:17;99209.38;;;11.31;100.00
13695;BME280;6919;52.344;14.518;2023-04-01T09:42:06;99216.78;;;11.29;100.00
13695;BME280;6919;52.344;14.518;2023-04-01T09:44:39;99208.75;;;11.29;100.00
13695;BME280;6919;52.344;14.518;2023-04-01T09:47:22;99216.16;;;11.27;100.00
13695;BME280;6919;52.344;14.518;2023-04-01T09:50:23;99220.38;;;11.36;100.00
13695;BME280;6919;52.344;14.518;2023-04-01T09:53:05;99222.13;;;11.50;100.00
13695;BME280;6919;52.344;14.518;2023-04-01T09:55:57;99213.41;;;11.42;100.00
13695;BME280;6919;52.344;14.518;2023-04-01T10:02:15;99209.38;;;11.31;100.00
13695;BME280;6919;52.344;14.518;2023-04-01T10:05:24;99212.69;;;11.33;100.00
13695;BME280;6919;52.344;14.518;2023-04-01T10:08:29;99217.25;;;11.33;100.00
13695;BME280;6919;52.344;14.518;2023-04-01T10:11:22;99212.06;;;11.31;100.00
13695;BME280;6919;52.344;14.518;2023-04-01T10:14:15;99224.22;;;11.27;100.00
13695;BME280;6919;52.344;14.518;2023-04-01T10:20:23;99222.94;;;11.44;100.00
13695;BME280;6919;52.344;14.518;2023-04-01T10:23:22;99218.66;;;11.50;100.00
13695;BME280;6919;52.344;14.518;2023-04-01T10:26:19;99232.84;;;11.23;100.00
13695;BME280;6919;52.344;14.518;2023-04-01T10:29:12;99228.56;;;11.28;100.00
13695;BME280;6919;52.344;14.518;2023-04-01T10:32:24;99218.91;;;11.13;100.00
13695;BME280;6919;52.344;14.518;2023-04-01T10:35:26;99226.09;;;11.12;100.00
13695;BME280;6919;52.344;14.518;2023-04-01T10:38:38;99233.84;;;11.01;100.00
13695;BME280;6919;52.344;14.518;2023-04-01T10:41:41;99237.84;;;10.90;100.00
13695;BME280;6919;52.344;14.518;2023-04-01T10:53:40;99239.38;;;10.78;100.00
13695;BME280;6919;52.344;14.518;2023-04-01T10:56:38;99245.47;;;10.72;100.00
13695;BME280;6919;52.344;14.518;2023-04-01T10:59:36;99249.19;;;10.71;100.00
13695;BME280;6919;52.344;14.518;2023-04-01T11:09:02;99249.47;;;10.62;100.00
13695;BME280;6919;52.344;14.518;2023-04-01T11:12:03;99253.00;;;10.48;100.00
13695;BME280;6919;52.344;14.518;2023-04-01T11:18:22;99267.13;;;10.42;100.00
13695;BME280;6919;52.344;14.518;2023-04-01T11:21:27;99271.03;;;10.39;100.00
13695;BME280;6919;52.344;14.518;2023-04-01T11:24:12;99275.72;;;10.37;100.00
13695;BME280;6919;52.344;14.518;2023-04-01T11:26:53;99277.56;;;10.22;100.00
13695;BME280;6919;52.344;14.518;2023-04-01T11:29:42;99272.75;;;10.61;100.00
13695;BME280;6919;52.344;14.518;2023-04-01T11:32:41;99276.56;;;10.52;100.00
13695;BME280;6919;52.344;14.518;2023-04-01T11:38:26;99279.81;;;10.19;100.00
13695;BME280;6919;52.344;14.518;2023-04-01T11:41:06;99288.00;;;10.32;100.00
13695;BME280;6919;52.344;14.518;2023-04-01T11:43:40;99296.31;;;10.22;100.00
13695;BME280;6919;52.344;14.518;2023-04-01T11:46:19;99297.47;;;10.05;100.00
13695;BME280;6919;52.344;14.518;2023-04-01T11:48:58;99301.22;;;10.19;100.00
13695;BME280;6919;52.344;14.518;2023-04-01T11:51:52;99312.13;;;10.32;100.00
13695;BME280;6919;52.344;14.518;2023-04-01T11:54:35;99313.72;;;10.41;100.00
13695;BME280;6919;52.344;14.518;2023-04-01T11:57:21;99317.69;;;10.45;100.00
13695;BME280;6919;52.344;14.518;2023-04-01T12:03:01;99310.56;;;10.52;100.00
13695;BME280;6919;52.344;14.518;2023-04-01T12:05:43;99315.72;;;10.39;100.00
13695;BME280;6919;52.344;14.518;2023-04-01T12:08:25;99308.09;;;10.65;100.00
13695;BME280;6919;52.344;14.518;2023-04-01T12:11:07;99313.63;;;10.63;100.00
13695;BME280;6919;52.344;14.518;2023-04-01T12:13:48;99305.94;;;10.60;100.00
13695;BME280;6919;52.344;14.518;2023-04-01T12:16:52;99311.69;;;10.57;100.00
13695;BME280;6919;52.344;14.518;2023-04-01T12:19:29;99314.72;;;10.69;100.00
13695;BME280;6919;52.344;14.518;2023-04-01T12:25:22;99323.03;;;10.30;100.00
13695;BME280;6919;52.344;14.518;2023-04-01T12:28:06;99329.41;;;10.29;100.00
13695;BME280;6919;52.344;14.518;2023-04-01T12:31:02;99328.75;;;10.42;100.00
13695;BME280;6919;52.344;14.518;2023-04-01T12:36:42;99338.34;;;10.22;100.00
13695;BME280;6919;52.344;14.518;2023-04-01T12:39:38;99339.94;;;10.31;100.00
13695;BME280;6919;52.344;14.518;2023-04-01T12:42:17;99345.47;;;10.29;100.00
13695;BME280;6919;52.344;14.518;2023-04-01T12:45:01;99345.63;;;10.13;100.00
13695;BME280;6919;52.344;14.518;2023-04-01T12:47:48;99358.28;;;10.19;100.00
13695;BME280;6919;52.344;14.518;2023-04-01T12:50:37;99359.50;;;9.94;100.00
13695;BME280;6919;52.344;14.518;2023-04-01T12:53:24;99365.69;;;9.95;100.00
13695;BME280;6919;52.344;14.518;2023-04-01T12:56:03;99367.44;;;10.25;100.00
13695;BME280;6919;52.344;14.518;2023-04-01T12:59:00;99366.47;;;10.03;100.00
13695;BME280;6919;52.344;14.518;2023-04-01T13:01:56;99373.78;;;10.09;100.00
13695;BME280;6919;52.344;14.518;2023-04-01T13:04:47;99372.03;;;10.16;100.00
13695;BME280;6919;52.344;14.518;2023-04-01T13:07:51;99373.38;;;9.98;100.00
13695;BME280;6919;52.344;14.518;2023-04-01T13:10:31;99372.59;;;9.89;100.00
13695;BME280;6919;52.344;14.518;2023-04-01T13:13:28;99390.56;;;10.03;100.00
13695;BME280;6919;52.344;14.518;2023-04-01T13:16:00;99396.72;;;10.04;100.00
13695;BME280;6919;52.344;14.518;2023-04-01T13:18:43;99390.59;;;9.95;100.00
13695;BME280;6919;52.344;14.518;2023-04-01T13:21:24;99404.47;;;9.99;100.00
13695;BME280;6919;52.344;14.518;2023-04-01T13:24:00;99394.38;;;9.86;100.00
13695;BME280;6919;52.344;14.518;2023-04-01T13:26:36;99400.00;;;9.91;100.00
13695;BME280;6919;52.344;14.518;2023-04-01T13:29:12;99415.25;;;9.91;100.00
13695;BME280;6919;52.344;14.518;2023-04-01T13:32:00;99405.59;;;10.04;100.00
13695;BME280;6919;52.344;14.518;2023-04-01T13:34:41;99407.75;;;9.86;100.00
13695;BME280;6919;52.344;14.518;2023-04-01T13:37:32;99416.06;;;9.91;100.00
13695;BME280;6919;52.344;14.518;2023-04-01T13:40:30;99415.44;;;9.89;100.00
13695;BME280;6919;52.344;14.518;2023-04-01T13:43:04;99412.41;;;9.92;100.00
13695;BME280;6919;52.344;14.518;2023-04-01T13:45:49;99418.16;;;9.81;100.00
13695;BME280;6919;52.344;14.518;2023-04-01T13:48:46;99428.75;;;9.97;100.00
13695;BME280;6919;52.344;14.518;2023-04-01T13:57:48;99429.34;;;9.62;100.00
13695;BME280;6919;52.344;14.518;2023-04-01T14:00:38;99430.00;;;9.64;100.00
13695;BME280;6919;52.344;14.518;2023-04-01T14:03:26;99437.63;;;9.75;100.00
13695;BME280;6919;52.344;14.518;2023-04-01T14:06:12;99430.13;;;9.93;100.00
13695;BME280;6919;52.344;14.518;2023-04-01T14:09:08;99436.31;;;9.71;100.00
13695;BME280;6919;52.344;14.518;2023-04-01T14:11:47;99439.41;;;9.52;100.00
13695;BME280;6919;52.344;14.518;2023-04-01T14:14:31;99445.13;;;9.49;100.00
13695;BME280;6919;52.344;14.518;2023-04-01T14:17:12;99454.28;;;9.55;100.00
13695;BME280;6919;52.344;14.518;2023-04-01T14:22:51;99467.66;;;9.55;100.00
13695;BME280;6919;52.344;14.518;2023-04-01T14:25:51;99473.84;;;9.55;100.00
13695;BME280;6919;52.344;14.518;2023-04-01T14:28:30;99470.16;;;9.56;100.00
13695;BME280;6919;52.344;14.518;2023-04-01T14:31:25;99473.84;;;9.55;100.00
13695;BME280;6919;52.344;14.518;2023-04-01T14:34:05;99484.28;;;9.42;100.00
13695;BME280;6919;52.344;14.518;2023-04-01T14:36:50;99479.66;;;9.36;100.00
13695;BME280;6919;52.344;14.518;2023-04-01T14:39:51;99481.31;;;9.37;100.00
13695;BME280;6919;52.344;14.518;2023-04-01T14:45:54;99492.75;;;9.07;100.00
13695;BME280;6919;52.344;14.518;2023-04-01T14:48:32;99493.47;;;9.01;100.00
13695;BME280;6919;52.344;14.518;2023-04-01T14:51:09;99504.66;;;8.96;100.00
13695;BME280;6919;52.344;14.518;2023-04-01T14:53:42;99496.50;;;8.90;100.00
13695;BME280;6919;52.344;14.518;2023-04-01T14:56:13;99508.88;;;8.83;100.00
13695;BME280;6919;52.344;14.518;2023-04-01T14:59:09;99509.72;;;8.91;100.00
13695;BME280;6919;52.344;14.518;2023-04-01T15:01:45;99511.91;;;8.72;100.00
13695;BME280;6919;52.344;14.518;2023-04-01T15:04:35;99519.41;;;8.76;100.00
13695;BME280;6919;52.344;14.518;2023-04-01T15:10:39;99526.06;;;8.80;100.00